Overview Statistics Trail Chart Weather Telemetry Raw packets
 

This is the latest recevied weather packets stored in our database for station/object W4MLN-3. If no packets are shown the sender has not sent any weather packets the latest 10 day(s).

<< 65 66 67 68 69 70 71 >>
Time Temp. Humidity Pressure Rain* Wind** Luminosity Snow
1788034803 26.11° C 66% 1024.2 hPa 0 mm - - -
1788034513 26.67° C 65% 1024.3 hPa 0 mm - - -
1788034203 27.22° C 62% 1024.3 hPa 0 mm - - -
1788033903 27.22° C 59% 1024.3 hPa 0 mm - - -
1788033603 26.67° C 65% 1024.4 hPa 0 mm - - -
1788033303 26.67° C 62% 1024.4 hPa 0 mm - - -
1788033003 26.67° C 62% 1024.4 hPa 0 mm - - -
1788032704 26.67° C 60% 1024.4 hPa 0 mm - - -
1788032403 26.67° C 62% 1024.4 hPa 0 mm - - -
1788032103 26.67° C 62% 1024.5 hPa 0 mm - - -
1788031824 26.67° C 63% 1024.7 hPa 0 mm - - -
1788031525 26.67° C 60% 1024.7 hPa 0 mm - - -
1788031203 26.67° C 62% 1024.8 hPa 0 mm - - -
1788030903 26.67° C 60% 1024.8 hPa 0 mm - - -
1788030603 26.67° C 60% 1024.9 hPa 0 mm - - -
1788030303 26.67° C 61% 1024.9 hPa 0 mm - - -
1788030003 26.67° C 60% 1025 hPa 0 mm - - -
1788029703 26.67° C 60% 1025 hPa 0 mm - - -
1788029403 26.67° C 62% 1025.1 hPa 0 mm - - -
1788029124 26.67° C 63% 1025.1 hPa 0 mm - - -
1788028804 26.67° C 62% 1025.2 hPa 0 mm - - -
1788028503 26.67° C 66% 1025.2 hPa 0 mm - - -
1788028203 26.67° C 68% 1025.2 hPa 0 mm - - -
1788027903 26.11° C 68% 1025.2 hPa 0 mm - - -
1788027603 25.56° C 71% 1025.3 hPa 0 mm - - -

* Rain latest hour (hover to see other rain measurements)
** Current wind speed in m/s (hover to see current wind gust speed)